Monday, August 20, 2018, 8:45 AM EDT
Back to Local

KBHB, Bar Harbor, Hancock County-bar Harbor Airport

Location: Ellsworth, ME, United States Lat: 44.45
Local Time: 8:45 AM EDT (12:45 GMT) Lon: -68.367
Time Zone: US/Eastern Elev: 82 ft

Show me the last for .
Show Decoded

2018-08-20 07:56 METAR KBHB 201156Z AUTO 01005KT 10SM FEW049 16/14 A3022 RMK AO2 SLP237 T01610144
                 10161 20139 51016 $ =
2018-08-20 06:56 METAR KBHB 201056Z AUTO 35003KT 10SM CLR 14/14 A3022 RMK AO2 SLP235 T01440139 $
                 =
2018-08-20 05:56 METAR KBHB 200956Z AUTO 36004KT 10SM CLR 14/13 A3019 RMK AO2 SLP228 T01390133 $
                 =
2018-08-20 04:56 METAR KBHB 200856Z AUTO 01004KT 10SM CLR 14/14 A3017 RMK AO2 SLP221 T01440139
                 51003 $ =
2018-08-20 03:56 METAR KBHB 200756Z AUTO 31004KT 10SM CLR 15/14 A3017 RMK AO2 SLP220 T01500139 $
                 =
2018-08-20 02:56 METAR KBHB 200656Z AUTO 36003KT 10SM CLR 14/13 A3017 RMK AO2 SLP221 T01390133 $
                 =
2018-08-20 01:56 METAR KBHB 200556Z AUTO 00000KT 10SM CLR 16/14 A3016 RMK AO2 SLP218 T01560139
                 10194 20150 50005 $ =
2018-08-20 00:56 METAR KBHB 200456Z AUTO 36004KT 10SM CLR 15/14 A3017 RMK AO2 SLP219 T01500144 $
                 =
2018-08-19 23:56 METAR KBHB 200356Z AUTO 36004KT 10SM FEW044 16/14 A3016 RMK AO2 SLP216 T01560144
                 $ =
2018-08-19 22:56 METAR KBHB 200256Z AUTO 35003KT 10SM CLR 16/14 A3015 RMK AO2 SLP213 T01610144
                 50006 $ =
2018-08-19 21:56 METAR KBHB 200156Z AUTO 00000KT 10SM FEW060 16/14 A3015 RMK AO2 SLP215 T01560144
                 $ =
2018-08-19 20:56 METAR KBHB 200056Z AUTO 00000KT 10SM SCT060 17/14 A3015 RMK AO2 SLP213 T01670144
                 $ =
2018-08-19 19:56 METAR KBHB 192356Z AUTO 15003KT 10SM SCT060 19/14 A3013 RMK AO2 SLP207 T01940144
                 10244 20194 402440133 53020 $ =
2018-08-19 18:56 METAR KBHB 192256Z AUTO 10004KT 10SM BKN055 21/16 A3011 RMK AO2 SLP199 T02060156
                 $ =
2018-08-19 17:56 METAR KBHB 192156Z AUTO 10004KT 10SM OVC048 22/15 A3009 RMK AO2 SLP193 T02170150
                 $ =
2018-08-19 16:56 METAR KBHB 192056Z AUTO 05009KT 10SM FEW048 24/14 A3007 RMK AO2 SLP187 T02390144
                 55001 $ =
2018-08-19 14:56 METAR KBHB 191856Z AUTO 06009KT 10SM BKN045 23/14 A3007 RMK AO2 SLP186 T02330139
                 $ =
2018-08-19 13:56 METAR KBHB 191756Z AUTO 07008KT 10SM BKN040 BKN049 23/15 A3008 RMK AO2 SLP188
                 T02330150 10233 20161 53002 $ =
2018-08-19 12:56 METAR KBHB 191656Z AUTO 02010G16KT 10SM FEW034 22/14 A3007 RMK AO2 SLP186
                 T02220144 $ =
2018-08-19 11:56 METAR KBHB 191556Z AUTO 02011G16KT 10SM CLR 22/14 A3007 RMK AO2 SLP184 T02170144
                 $ =
2018-08-19 10:56 METAR KBHB 191456Z AUTO 05010KT 10SM CLR 21/14 A3007 RMK AO2 SLP186 T02060144
                 51006 $ =
2018-08-19 09:56 METAR KBHB 191356Z AUTO 03012G17KT 10SM FEW018 19/14 A3006 RMK AO2 SLP184
                 T01940144 $ =
2018-08-19 09:53 METAR KBHB 191353Z AUTO 04013G17KT 10SM FEW018 19/14 A3006 RMK AO2 $ =
2018-08-19 09:40 METAR KBHB 191340Z AUTO 04013G19KT 10SM BKN018 18/14 A3006 RMK AO2 $ =
2018-08-19 08:56 METAR KBHB 191256Z AUTO 03010KT 10SM FEW012 17/14 A3005 RMK AO2 SLP180 T01720144
                 $ =

Support USWX by starting your Amazon purchase here.